Impacts TAF Board
For situational awareness. Not to be used for flight planning purposes.
IDs:

KORD - Chicago/O'Hare Intl, IL, US

Issued at 1448 UTC 03 Dec 2021
Updated at 1551 UTC 03 Dec 2021
Potential Impact None Slight Moderate High
Time<<04/04Z 04/05Z 04/06Z 04/07Z 04/08Z 04/09Z 04/10Z 04/11Z 04/12Z 04/13Z 04/14Z 04/15Z 04/16Z>>
Type PRVL PRVL PRVL PRVL PRVL PRVL PRVL PRVL PRVL PRVL PRVL PRVL PRVL
VIS >6 >6 >6 >6 >6 >6 >6 >6 >6 >6 >6 >6 >6
CIG -- -- -- -- -- -- -- -- -- -- -- -- --
Cover SCT SCT SCT SCT SCT SCT SCT SCT SCT SCT SCT SCT SCT
FltCat VFR VFR VFR VFR VFR VFR VFR VFR VFR VFR VFR VFR VFR
WX -- -- -- -- -- -- -- -- -- -- -- -- --
WDir 360 360 330 330 330 330 330 330 330 330 330 330 330
WSpd 5 5 11 11 11 11 11 11 11 11 11 11 11
WGst -- -- -- -- -- -- -- -- -- -- -- -- --
WSHgt -- -- -- -- -- -- -- -- -- -- -- -- --
WSDir -- -- -- -- -- -- -- -- -- -- -- -- --
WSSpd -- -- -- -- -- -- -- -- -- -- -- -- --
Raw TAF
KORD 031448Z 0315/0418 09008KT P6SM BKN080
  FM031800 08007KT P6SM SCT060
  FM040100 36005KT P6SM FEW010 SCT050
  FM040600 33011KT P6SM SCT010 SCT200


METAR Board
Radar Display
Forecast Discussion
For situational awareness. Not to be used for flight planning purposes.